sensor_id;sensor_type;location;lat;lon;timestamp;P1;durP1;ratioP1;P2;durP2;ratioP2
8458;SDS011;4266;48.816;9.154;2023-08-06T00:00:19;10.43;;;6.97;;
8458;SDS011;4266;48.816;9.154;2023-08-06T00:02:44;7.83;;;6.80;;
8458;SDS011;4266;48.816;9.154;2023-08-06T00:05:10;7.47;;;6.87;;
8458;SDS011;4266;48.816;9.154;2023-08-06T00:07:36;7.77;;;7.17;;
8458;SDS011;4266;48.816;9.154;2023-08-06T00:10:01;7.90;;;6.77;;
8458;SDS011;4266;48.816;9.154;2023-08-06T00:12:27;7.33;;;6.63;;
8458;SDS011;4266;48.816;9.154;2023-08-06T00:14:54;6.80;;;6.30;;
8458;SDS011;4266;48.816;9.154;2023-08-06T00:17:19;7.00;;;6.30;;
8458;SDS011;4266;48.816;9.154;2023-08-06T00:19:45;10.33;;;6.67;;
8458;SDS011;4266;48.816;9.154;2023-08-06T00:22:11;7.57;;;6.10;;
8458;SDS011;4266;48.816;9.154;2023-08-06T00:24:37;6.03;;;5.50;;
8458;SDS011;4266;48.816;9.154;2023-08-06T00:27:03;7.03;;;6.30;;
8458;SDS011;4266;48.816;9.154;2023-08-06T00:29:30;7.47;;;6.73;;
8458;SDS011;4266;48.816;9.154;2023-08-06T00:31:56;7.13;;;6.17;;
8458;SDS011;4266;48.816;9.154;2023-08-06T00:34:22;5.93;;;5.40;;
8458;SDS011;4266;48.816;9.154;2023-08-06T00:36:48;6.30;;;5.87;;
8458;SDS011;4266;48.816;9.154;2023-08-06T00:39:13;6.10;;;5.60;;
8458;SDS011;4266;48.816;9.154;2023-08-06T00:41:39;5.47;;;5.07;;
8458;SDS011;4266;48.816;9.154;2023-08-06T00:44:05;5.37;;;4.87;;
8458;SDS011;4266;48.816;9.154;2023-08-06T00:46:31;5.30;;;4.70;;
8458;SDS011;4266;48.816;9.154;2023-08-06T00:48:56;5.10;;;4.70;;
8458;SDS011;4266;48.816;9.154;2023-08-06T00:51:22;5.33;;;4.67;;
8458;SDS011;4266;48.816;9.154;2023-08-06T00:53:48;6.20;;;5.40;;
8458;SDS011;4266;48.816;9.154;2023-08-06T00:56:14;5.30;;;4.43;;
8458;SDS011;4266;48.816;9.154;2023-08-06T00:58:40;4.57;;;4.17;;
8458;SDS011;4266;48.816;9.154;2023-08-06T01:01:06;5.37;;;4.97;;
8458;SDS011;4266;48.816;9.154;2023-08-06T01:03:31;5.13;;;4.73;;
8458;SDS011;4266;48.816;9.154;2023-08-06T01:05:58;6.40;;;4.30;;
8458;SDS011;4266;48.816;9.154;2023-08-06T01:08:37;5.00;;;4.37;;
8458;SDS011;4266;48.816;9.154;2023-08-06T01:13:50;5.27;;;4.80;;
8458;SDS011;4266;48.816;9.154;2023-08-06T01:16:16;6.67;;;4.83;;
8458;SDS011;4266;48.816;9.154;2023-08-06T01:18:41;5.53;;;4.90;;
8458;SDS011;4266;48.816;9.154;2023-08-06T01:21:07;8.13;;;5.07;;
8458;SDS011;4266;48.816;9.154;2023-08-06T01:23:32;5.40;;;5.00;;
8458;SDS011;4266;48.816;9.154;2023-08-06T01:26:05;4.87;;;4.57;;
8458;SDS011;4266;48.816;9.154;2023-08-06T01:29:05;5.30;;;4.53;;
8458;SDS011;4266;48.816;9.154;2023-08-06T01:31:18;5.70;;;4.87;;
8458;SDS011;4266;48.816;9.154;2023-08-06T01:33:40;5.30;;;4.83;;
8458;SDS011;4266;48.816;9.154;2023-08-06T01:36:06;5.50;;;5.00;;
8458;SDS011;4266;48.816;9.154;2023-08-06T01:38:31;5.30;;;4.67;;
8458;SDS011;4266;48.816;9.154;2023-08-06T01:40:57;5.10;;;4.70;;
8458;SDS011;4266;48.816;9.154;2023-08-06T01:43:23;4.87;;;4.40;;
8458;SDS011;4266;48.816;9.154;2023-08-06T01:45:48;4.63;;;4.30;;
8458;SDS011;4266;48.816;9.154;2023-08-06T01:48:14;4.47;;;4.07;;
8458;SDS011;4266;48.816;9.154;2023-08-06T01:50:41;4.70;;;4.33;;
8458;SDS011;4266;48.816;9.154;2023-08-06T01:53:06;10.30;;;4.30;;
8458;SDS011;4266;48.816;9.154;2023-08-06T01:55:32;4.27;;;3.90;;
8458;SDS011;4266;48.816;9.154;2023-08-06T01:57:58;4.30;;;3.93;;
8458;SDS011;4266;48.816;9.154;2023-08-06T02:00:23;6.20;;;4.20;;
8458;SDS011;4266;48.816;9.154;2023-08-06T02:02:49;4.47;;;4.07;;
8458;SDS011;4266;48.816;9.154;2023-08-06T02:05:15;5.23;;;4.80;;
8458;SDS011;4266;48.816;9.154;2023-08-06T02:07:40;6.23;;;4.50;;
8458;SDS011;4266;48.816;9.154;2023-08-06T02:10:07;4.33;;;4.00;;
8458;SDS011;4266;48.816;9.154;2023-08-06T02:12:34;6.47;;;4.80;;
8458;SDS011;4266;48.816;9.154;2023-08-06T02:15:00;5.00;;;4.00;;
8458;SDS011;4266;48.816;9.154;2023-08-06T02:17:26;5.03;;;4.10;;
8458;SDS011;4266;48.816;9.154;2023-08-06T02:19:52;4.73;;;4.33;;
8458;SDS011;4266;48.816;9.154;2023-08-06T02:22:19;5.37;;;3.90;;
8458;SDS011;4266;48.816;9.154;2023-08-06T02:24:45;4.83;;;4.37;;
8458;SDS011;4266;48.816;9.154;2023-08-06T02:27:11;6.90;;;3.73;;
8458;SDS011;4266;48.816;9.154;2023-08-06T02:29:36;4.50;;;3.83;;
8458;SDS011;4266;48.816;9.154;2023-08-06T02:32:02;5.03;;;4.30;;
8458;SDS011;4266;48.816;9.154;2023-08-06T02:34:29;4.93;;;4.00;;
8458;SDS011;4266;48.816;9.154;2023-08-06T02:36:55;4.40;;;3.90;;
8458;SDS011;4266;48.816;9.154;2023-08-06T02:39:21;6.57;;;3.93;;
8458;SDS011;4266;48.816;9.154;2023-08-06T02:41:47;4.77;;;4.17;;
8458;SDS011;4266;48.816;9.154;2023-08-06T02:44:12;5.77;;;4.10;;
8458;SDS011;4266;48.816;9.154;2023-08-06T02:46:38;4.90;;;4.47;;
8458;SDS011;4266;48.816;9.154;2023-08-06T02:49:04;4.70;;;4.30;;
8458;SDS011;4266;48.816;9.154;2023-08-06T02:51:30;6.17;;;4.53;;
8458;SDS011;4266;48.816;9.154;2023-08-06T02:53:55;5.03;;;4.60;;
8458;SDS011;4266;48.816;9.154;2023-08-06T02:56:21;4.53;;;4.13;;
8458;SDS011;4266;48.816;9.154;2023-08-06T02:58:48;5.00;;;4.60;;
8458;SDS011;4266;48.816;9.154;2023-08-06T03:01:13;5.70;;;5.20;;
8458;SDS011;4266;48.816;9.154;2023-08-06T03:03:39;5.60;;;5.20;;
8458;SDS011;4266;48.816;9.154;2023-08-06T03:06:05;5.07;;;4.67;;
8458;SDS011;4266;48.816;9.154;2023-08-06T03:08:30;5.40;;;4.90;;
8458;SDS011;4266;48.816;9.154;2023-08-06T03:10:56;10.60;;;4.80;;
8458;SDS011;4266;48.816;9.154;2023-08-06T03:13:22;4.53;;;4.23;;
8458;SDS011;4266;48.816;9.154;2023-08-06T03:15:52;5.37;;;4.87;;
8458;SDS011;4266;48.816;9.154;2023-08-06T03:18:18;5.80;;;3.80;;
8458;SDS011;4266;48.816;9.154;2023-08-06T03:20:44;4.63;;;4.23;;
8458;SDS011;4266;48.816;9.154;2023-08-06T03:23:09;4.60;;;4.20;;
8458;SDS011;4266;48.816;9.154;2023-08-06T03:25:35;6.03;;;3.93;;
8458;SDS011;4266;48.816;9.154;2023-08-06T03:28:00;4.60;;;4.00;;
8458;SDS011;4266;48.816;9.154;2023-08-06T03:30:26;4.60;;;4.30;;
8458;SDS011;4266;48.816;9.154;2023-08-06T03:32:52;9.50;;;4.73;;
8458;SDS011;4266;48.816;9.154;2023-08-06T03:35:18;4.90;;;4.50;;
8458;SDS011;4266;48.816;9.154;2023-08-06T03:37:43;5.07;;;4.60;;
8458;SDS011;4266;48.816;9.154;2023-08-06T03:40:09;4.80;;;4.30;;
8458;SDS011;4266;48.816;9.154;2023-08-06T03:42:36;7.30;;;5.03;;
8458;SDS011;4266;48.816;9.154;2023-08-06T03:45:03;5.20;;;4.70;;
8458;SDS011;4266;48.816;9.154;2023-08-06T03:47:30;5.53;;;5.03;;
8458;SDS011;4266;48.816;9.154;2023-08-06T03:49:55;6.07;;;4.97;;
8458;SDS011;4266;48.816;9.154;2023-08-06T03:52:21;5.67;;;5.17;;
8458;SDS011;4266;48.816;9.154;2023-08-06T03:54:47;6.43;;;4.80;;
8458;SDS011;4266;48.816;9.154;2023-08-06T03:57:12;7.37;;;5.00;;
8458;SDS011;4266;48.816;9.154;2023-08-06T03:59:38;8.33;;;4.63;;
8458;SDS011;4266;48.816;9.154;2023-08-06T04:02:04;5.47;;;4.70;;
8458;SDS011;4266;48.816;9.154;2023-08-06T04:04:30;5.70;;;4.93;;
8458;SDS011;4266;48.816;9.154;2023-08-06T04:06:56;6.40;;;4.80;;
8458;SDS011;4266;48.816;9.154;2023-08-06T04:09:21;7.00;;;4.50;;
8458;SDS011;4266;48.816;9.154;2023-08-06T04:11:48;10.17;;;5.27;;
8458;SDS011;4266;48.816;9.154;2023-08-06T04:14:14;4.77;;;4.47;;
8458;SDS011;4266;48.816;9.154;2023-08-06T04:16:39;6.67;;;4.77;;
8458;SDS011;4266;48.816;9.154;2023-08-06T04:19:06;9.23;;;4.50;;
8458;SDS011;4266;48.816;9.154;2023-08-06T04:21:33;5.03;;;4.63;;
8458;SDS011;4266;48.816;9.154;2023-08-06T04:23:59;6.27;;;4.63;;
8458;SDS011;4266;48.816;9.154;2023-08-06T04:26:24;5.67;;;4.20;;
8458;SDS011;4266;48.816;9.154;2023-08-06T04:28:50;5.60;;;4.00;;
8458;SDS011;4266;48.816;9.154;2023-08-06T04:31:16;7.10;;;4.07;;
8458;SDS011;4266;48.816;9.154;2023-08-06T04:33:41;5.00;;;4.40;;
8458;SDS011;4266;48.816;9.154;2023-08-06T04:36:07;4.23;;;3.83;;
8458;SDS011;4266;48.816;9.154;2023-08-06T04:38:33;4.37;;;4.07;;
8458;SDS011;4266;48.816;9.154;2023-08-06T04:40:59;5.40;;;3.97;;
8458;SDS011;4266;48.816;9.154;2023-08-06T04:43:25;7.90;;;4.03;;
8458;SDS011;4266;48.816;9.154;2023-08-06T04:45:51;4.43;;;4.03;;
8458;SDS011;4266;48.816;9.154;2023-08-06T04:48:17;4.43;;;4.10;;
8458;SDS011;4266;48.816;9.154;2023-08-06T04:50:44;5.00;;;4.70;;
8458;SDS011;4266;48.816;9.154;2023-08-06T04:53:10;5.33;;;4.17;;
8458;SDS011;4266;48.816;9.154;2023-08-06T04:55:35;6.33;;;4.33;;
8458;SDS011;4266;48.816;9.154;2023-08-06T04:58:01;4.53;;;4.00;;
8458;SDS011;4266;48.816;9.154;2023-08-06T05:00:27;5.37;;;4.13;;
8458;SDS011;4266;48.816;9.154;2023-08-06T05:02:52;7.47;;;4.20;;
8458;SDS011;4266;48.816;9.154;2023-08-06T05:05:18;4.73;;;3.50;;
8458;SDS011;4266;48.816;9.154;2023-08-06T05:07:45;4.27;;;3.80;;
8458;SDS011;4266;48.816;9.154;2023-08-06T05:10:09;4.13;;;3.30;;
8458;SDS011;4266;48.816;9.154;2023-08-06T05:12:35;5.10;;;3.70;;
8458;SDS011;4266;48.816;9.154;2023-08-06T05:15:01;5.93;;;3.77;;
8458;SDS011;4266;48.816;9.154;2023-08-06T05:17:27;4.67;;;3.40;;
8458;SDS011;4266;48.816;9.154;2023-08-06T05:19:53;3.50;;;3.20;;
8458;SDS011;4266;48.816;9.154;2023-08-06T05:22:18;4.67;;;3.40;;
8458;SDS011;4266;48.816;9.154;2023-08-06T05:24:44;5.23;;;4.00;;
8458;SDS011;4266;48.816;9.154;2023-08-06T05:27:10;3.40;;;3.10;;
8458;SDS011;4266;48.816;9.154;2023-08-06T05:29:36;5.87;;;3.40;;
8458;SDS011;4266;48.816;9.154;2023-08-06T05:32:02;3.47;;;3.17;;
8458;SDS011;4266;48.816;9.154;2023-08-06T05:34:29;3.13;;;2.90;;
8458;SDS011;4266;48.816;9.154;2023-08-06T05:36:54;3.10;;;2.80;;
8458;SDS011;4266;48.816;9.154;2023-08-06T05:39:20;4.77;;;2.67;;
8458;SDS011;4266;48.816;9.154;2023-08-06T05:41:46;4.53;;;2.93;;
8458;SDS011;4266;48.816;9.154;2023-08-06T05:44:11;2.57;;;2.30;;
8458;SDS011;4266;48.816;9.154;2023-08-06T05:46:37;2.40;;;2.20;;
8458;SDS011;4266;48.816;9.154;2023-08-06T05:49:03;2.20;;;2.10;;
8458;SDS011;4266;48.816;9.154;2023-08-06T05:51:28;2.27;;;2.07;;
8458;SDS011;4266;48.816;9.154;2023-08-06T05:53:54;2.50;;;2.30;;
8458;SDS011;4266;48.816;9.154;2023-08-06T05:56:20;2.30;;;2.10;;
8458;SDS011;4266;48.816;9.154;2023-08-06T05:58:45;2.00;;;1.90;;
8458;SDS011;4266;48.816;9.154;2023-08-06T06:01:11;3.23;;;2.17;;
8458;SDS011;4266;48.816;9.154;2023-08-06T06:03:37;3.30;;;2.40;;
8458;SDS011;4266;48.816;9.154;2023-08-06T06:06:03;3.73;;;1.83;;
8458;SDS011;4266;48.816;9.154;2023-08-06T06:08:29;4.83;;;2.07;;
8458;SDS011;4266;48.816;9.154;2023-08-06T06:10:54;2.03;;;1.83;;
8458;SDS011;4266;48.816;9.154;2023-08-06T06:13:20;2.27;;;1.90;;
8458;SDS011;4266;48.816;9.154;2023-08-06T06:15:46;1.93;;;1.83;;
8458;SDS011;4266;48.816;9.154;2023-08-06T06:18:13;1.80;;;1.70;;
8458;SDS011;4266;48.816;9.154;2023-08-06T06:20:38;1.73;;;1.63;;
8458;SDS011;4266;48.816;9.154;2023-08-06T06:23:04;1.90;;;1.73;;
8458;SDS011;4266;48.816;9.154;2023-08-06T06:25:30;1.80;;;1.70;;
8458;SDS011;4266;48.816;9.154;2023-08-06T06:27:56;2.80;;;1.53;;
8458;SDS011;4266;48.816;9.154;2023-08-06T06:30:22;3.40;;;1.70;;
8458;SDS011;4266;48.816;9.154;2023-08-06T06:32:48;2.17;;;1.93;;
8458;SDS011;4266;48.816;9.154;2023-08-06T06:35:14;1.70;;;1.60;;
8458;SDS011;4266;48.816;9.154;2023-08-06T06:37:40;1.77;;;1.67;;
8458;SDS011;4266;48.816;9.154;2023-08-06T06:40:06;2.00;;;1.67;;
8458;SDS011;4266;48.816;9.154;2023-08-06T06:42:32;3.23;;;1.90;;
8458;SDS011;4266;48.816;9.154;2023-08-06T06:44:58;1.83;;;1.73;;
8458;SDS011;4266;48.816;9.154;2023-08-06T06:47:24;3.13;;;1.73;;
8458;SDS011;4266;48.816;9.154;2023-08-06T06:49:50;1.80;;;1.70;;
8458;SDS011;4266;48.816;9.154;2023-08-06T06:52:16;1.53;;;1.43;;
8458;SDS011;4266;48.816;9.154;2023-08-06T06:54:41;2.33;;;2.03;;
8458;SDS011;4266;48.816;9.154;2023-08-06T06:57:07;2.20;;;1.50;;
8458;SDS011;4266;48.816;9.154;2023-08-06T06:59:33;1.97;;;1.80;;
8458;SDS011;4266;48.816;9.154;2023-08-06T07:01:58;1.90;;;1.40;;
8458;SDS011;4266;48.816;9.154;2023-08-06T07:04:24;2.23;;;2.13;;
8458;SDS011;4266;48.816;9.154;2023-08-06T07:06:51;1.57;;;1.47;;
8458;SDS011;4266;48.816;9.154;2023-08-06T07:09:16;1.60;;;1.50;;
8458;SDS011;4266;48.816;9.154;2023-08-06T07:11:43;2.00;;;1.80;;
8458;SDS011;4266;48.816;9.154;2023-08-06T07:14:08;2.03;;;1.80;;
8458;SDS011;4266;48.816;9.154;2023-08-06T07:16:34;1.50;;;1.43;;
8458;SDS011;4266;48.816;9.154;2023-08-06T07:19:01;2.83;;;1.57;;
8458;SDS011;4266;48.816;9.154;2023-08-06T07:21:26;2.37;;;1.60;;
8458;SDS011;4266;48.816;9.154;2023-08-06T07:23:53;1.70;;;1.60;;
8458;SDS011;4266;48.816;9.154;2023-08-06T07:26:18;2.00;;;1.60;;
8458;SDS011;4266;48.816;9.154;2023-08-06T07:28:44;2.70;;;1.90;;
8458;SDS011;4266;48.816;9.154;2023-08-06T07:31:10;1.40;;;1.40;;
8458;SDS011;4266;48.816;9.154;2023-08-06T07:33:38;3.53;;;1.73;;
8458;SDS011;4266;48.816;9.154;2023-08-06T07:36:09;3.43;;;1.80;;
8458;SDS011;4266;48.816;9.154;2023-08-06T07:38:34;1.83;;;1.73;;
8458;SDS011;4266;48.816;9.154;2023-08-06T07:41:01;1.50;;;1.50;;
8458;SDS011;4266;48.816;9.154;2023-08-06T07:43:26;4.90;;;2.43;;
8458;SDS011;4266;48.816;9.154;2023-08-06T07:45:52;1.83;;;1.73;;
8458;SDS011;4266;48.816;9.154;2023-08-06T07:48:18;1.70;;;1.60;;
8458;SDS011;4266;48.816;9.154;2023-08-06T07:50:43;1.90;;;1.80;;
8458;SDS011;4266;48.816;9.154;2023-08-06T07:53:09;1.57;;;1.40;;
8458;SDS011;4266;48.816;9.154;2023-08-06T07:55:36;2.50;;;1.70;;
8458;SDS011;4266;48.816;9.154;2023-08-06T07:58:01;1.60;;;1.50;;
8458;SDS011;4266;48.816;9.154;2023-08-06T08:00:27;1.47;;;1.37;;
8458;SDS011;4266;48.816;9.154;2023-08-06T08:02:53;1.60;;;1.50;;
8458;SDS011;4266;48.816;9.154;2023-08-06T08:05:19;1.40;;;1.30;;
8458;SDS011;4266;48.816;9.154;2023-08-06T08:07:45;1.50;;;1.40;;
8458;SDS011;4266;48.816;9.154;2023-08-06T08:10:11;1.47;;;1.37;;
8458;SDS011;4266;48.816;9.154;2023-08-06T08:12:38;1.73;;;1.63;;
8458;SDS011;4266;48.816;9.154;2023-08-06T08:15:04;1.23;;;1.12;;
8458;SDS011;4266;48.816;9.154;2023-08-06T08:17:30;2.28;;;1.50;;
8458;SDS011;4266;48.816;9.154;2023-08-06T08:19:56;1.90;;;1.60;;
8458;SDS011;4266;48.816;9.154;2023-08-06T08:22:22;2.05;;;1.50;;
8458;SDS011;4266;48.816;9.154;2023-08-06T08:24:48;1.17;;;1.17;;
8458;SDS011;4266;48.816;9.154;2023-08-06T08:27:14;2.12;;;1.10;;
8458;SDS011;4266;48.816;9.154;2023-08-06T08:29:40;1.55;;;1.30;;
8458;SDS011;4266;48.816;9.154;2023-08-06T08:32:06;0.90;;;0.90;;
8458;SDS011;4266;48.816;9.154;2023-08-06T08:34:32;3.72;;;1.15;;
8458;SDS011;4266;48.816;9.154;2023-08-06T08:36:57;1.95;;;1.95;;
8458;SDS011;4266;48.816;9.154;2023-08-06T08:39:24;1.12;;;1.00;;
8458;SDS011;4266;48.816;9.154;2023-08-06T08:41:50;1.05;;;1.05;;
8458;SDS011;4266;48.816;9.154;2023-08-06T08:44:16;1.20;;;1.10;;
8458;SDS011;4266;48.816;9.154;2023-08-06T08:46:42;1.42;;;1.08;;
8458;SDS011;4266;48.816;9.154;2023-08-06T08:49:08;1.12;;;1.12;;
8458;SDS011;4266;48.816;9.154;2023-08-06T08:51:34;2.87;;;1.00;;
8458;SDS011;4266;48.816;9.154;2023-08-06T08:54:02;1.20;;;1.10;;
8458;SDS011;4266;48.816;9.154;2023-08-06T08:56:26;1.10;;;0.80;;
8458;SDS011;4266;48.816;9.154;2023-08-06T08:58:52;0.88;;;0.88;;
8458;SDS011;4266;48.816;9.154;2023-08-06T09:01:18;0.80;;;0.80;;
8458;SDS011;4266;48.816;9.154;2023-08-06T09:03:44;1.12;;;1.10;;
8458;SDS011;4266;48.816;9.154;2023-08-06T09:06:11;1.10;;;1.10;;
8458;SDS011;4266;48.816;9.154;2023-08-06T09:08:39;1.00;;;1.00;;
8458;SDS011;4266;48.816;9.154;2023-08-06T09:11:03;0.80;;;0.80;;
8458;SDS011;4266;48.816;9.154;2023-08-06T09:13:28;2.03;;;1.17;;
8458;SDS011;4266;48.816;9.154;2023-08-06T09:15:54;0.90;;;0.90;;
8458;SDS011;4266;48.816;9.154;2023-08-06T09:18:25;1.00;;;1.00;;
8458;SDS011;4266;48.816;9.154;2023-08-06T09:20:50;1.10;;;1.10;;
8458;SDS011;4266;48.816;9.154;2023-08-06T09:23:16;2.05;;;1.10;;
8458;SDS011;4266;48.816;9.154;2023-08-06T09:25:42;1.08;;;1.05;;
8458;SDS011;4266;48.816;9.154;2023-08-06T09:28:07;0.80;;;0.80;;
8458;SDS011;4266;48.816;9.154;2023-08-06T09:30:34;1.00;;;1.00;;
8458;SDS011;4266;48.816;9.154;2023-08-06T09:32:59;1.00;;;1.00;;
8458;SDS011;4266;48.816;9.154;2023-08-06T09:35:28;1.12;;;1.12;;
8458;SDS011;4266;48.816;9.154;2023-08-06T09:37:51;0.88;;;0.88;;
8458;SDS011;4266;48.816;9.154;2023-08-06T09:42:53;1.10;;;1.10;;
8458;SDS011;4266;48.816;9.154;2023-08-06T09:45:18;1.10;;;1.10;;
8458;SDS011;4266;48.816;9.154;2023-08-06T09:47:44;1.40;;;1.30;;
8458;SDS011;4266;48.816;9.154;2023-08-06T09:50:16;1.67;;;0.93;;
8458;SDS011;4266;48.816;9.154;2023-08-06T09:52:43;1.00;;;1.00;;
8458;SDS011;4266;48.816;9.154;2023-08-06T09:55:10;1.10;;;1.10;;
8458;SDS011;4266;48.816;9.154;2023-08-06T09:57:35;1.20;;;1.20;;
8458;SDS011;4266;48.816;9.154;2023-08-06T10:00:00;1.23;;;1.12;;
8458;SDS011;4266;48.816;9.154;2023-08-06T10:02:26;1.10;;;1.10;;
8458;SDS011;4266;48.816;9.154;2023-08-06T10:04:52;1.20;;;1.10;;
8458;SDS011;4266;48.816;9.154;2023-08-06T10:07:17;1.25;;;1.25;;
8458;SDS011;4266;48.816;9.154;2023-08-06T10:09:43;1.10;;;1.10;;
8458;SDS011;4266;48.816;9.154;2023-08-06T10:12:09;1.00;;;1.00;;
8458;SDS011;4266;48.816;9.154;2023-08-06T10:14:36;2.05;;;1.30;;
8458;SDS011;4266;48.816;9.154;2023-08-06T10:17:03;1.20;;;1.20;;
8458;SDS011;4266;48.816;9.154;2023-08-06T10:19:30;1.10;;;1.10;;
8458;SDS011;4266;48.816;9.154;2023-08-06T10:24:45;0.95;;;0.95;;
8458;SDS011;4266;48.816;9.154;2023-08-06T10:27:07;2.10;;;1.20;;
8458;SDS011;4266;48.816;9.154;2023-08-06T10:29:35;1.30;;;1.30;;
8458;SDS011;4266;48.816;9.154;2023-08-06T10:32:02;1.10;;;1.10;;
8458;SDS011;4266;48.816;9.154;2023-08-06T10:35:00;1.10;;;1.10;;
8458;SDS011;4266;48.816;9.154;2023-08-06T10:37:15;1.25;;;1.25;;
8458;SDS011;4266;48.816;9.154;2023-08-06T10:39:48;1.30;;;1.30;;
8458;SDS011;4266;48.816;9.154;2023-08-06T10:42:18;1.00;;;1.00;;
8458;SDS011;4266;48.816;9.154;2023-08-06T10:44:35;1.10;;;1.10;;
8458;SDS011;4266;48.816;9.154;2023-08-06T10:47:25;0.98;;;0.98;;
8458;SDS011;4266;48.816;9.154;2023-08-06T10:49:26;0.90;;;0.90;;
8458;SDS011;4266;48.816;9.154;2023-08-06T10:51:52;0.70;;;0.70;;
8458;SDS011;4266;48.816;9.154;2023-08-06T10:54:18;1.05;;;1.05;;
8458;SDS011;4266;48.816;9.154;2023-08-06T10:56:43;1.20;;;1.10;;
8458;SDS011;4266;48.816;9.154;2023-08-06T10:59:10;1.02;;;1.00;;
8458;SDS011;4266;48.816;9.154;2023-08-06T11:01:36;1.10;;;1.10;;
8458;SDS011;4266;48.816;9.154;2023-08-06T11:04:02;1.10;;;1.10;;
8458;SDS011;4266;48.816;9.154;2023-08-06T11:06:27;1.37;;;1.37;;
8458;SDS011;4266;48.816;9.154;2023-08-06T11:08:53;1.50;;;1.40;;
8458;SDS011;4266;48.816;9.154;2023-08-06T11:11:18;1.37;;;1.27;;
8458;SDS011;4266;48.816;9.154;2023-08-06T11:13:45;1.75;;;1.65;;
8458;SDS011;4266;48.816;9.154;2023-08-06T11:16:11;1.40;;;1.37;;
8458;SDS011;4266;48.816;9.154;2023-08-06T11:18:36;1.92;;;1.73;;
8458;SDS011;4266;48.816;9.154;2023-08-06T11:21:03;1.20;;;1.20;;
8458;SDS011;4266;48.816;9.154;2023-08-06T11:23:29;1.52;;;1.42;;
8458;SDS011;4266;48.816;9.154;2023-08-06T11:25:55;4.40;;;1.92;;
8458;SDS011;4266;48.816;9.154;2023-08-06T11:28:20;1.50;;;1.45;;
8458;SDS011;4266;48.816;9.154;2023-08-06T11:30:47;1.42;;;1.40;;
8458;SDS011;4266;48.816;9.154;2023-08-06T11:33:12;1.60;;;1.50;;
8458;SDS011;4266;48.816;9.154;2023-08-06T11:35:39;1.55;;;1.50;;
8458;SDS011;4266;48.816;9.154;2023-08-06T11:38:04;1.60;;;1.60;;
8458;SDS011;4266;48.816;9.154;2023-08-06T11:40:31;2.47;;;2.05;;
8458;SDS011;4266;48.816;9.154;2023-08-06T11:42:56;2.25;;;2.15;;
8458;SDS011;4266;48.816;9.154;2023-08-06T11:45:23;2.95;;;1.90;;
8458;SDS011;4266;48.816;9.154;2023-08-06T11:47:50;3.95;;;2.00;;
8458;SDS011;4266;48.816;9.154;2023-08-06T11:50:22;1.90;;;1.80;;
8458;SDS011;4266;48.816;9.154;2023-08-06T11:52:49;2.10;;;2.00;;
8458;SDS011;4266;48.816;9.154;2023-08-06T11:55:14;3.50;;;2.20;;
8458;SDS011;4266;48.816;9.154;2023-08-06T11:57:44;2.28;;;2.17;;
8458;SDS011;4266;48.816;9.154;2023-08-06T12:00:09;4.62;;;2.25;;
8458;SDS011;4266;48.816;9.154;2023-08-06T12:02:35;2.60;;;2.40;;
8458;SDS011;4266;48.816;9.154;2023-08-06T12:05:03;2.47;;;2.28;;
8458;SDS011;4266;48.816;9.154;2023-08-06T12:07:28;2.12;;;2.03;;
8458;SDS011;4266;48.816;9.154;2023-08-06T12:09:54;2.47;;;2.20;;
8458;SDS011;4266;48.816;9.154;2023-08-06T12:12:19;2.57;;;2.37;;
8458;SDS011;4266;48.816;9.154;2023-08-06T12:14:45;3.15;;;2.60;;
8458;SDS011;4266;48.816;9.154;2023-08-06T12:17:11;2.47;;;2.23;;
8458;SDS011;4266;48.816;9.154;2023-08-06T12:19:36;2.63;;;2.53;;
8458;SDS011;4266;48.816;9.154;2023-08-06T12:22:02;2.47;;;2.37;;
8458;SDS011;4266;48.816;9.154;2023-08-06T12:24:29;2.43;;;2.33;;
8458;SDS011;4266;48.816;9.154;2023-08-06T12:26:54;2.30;;;2.10;;
8458;SDS011;4266;48.816;9.154;2023-08-06T12:29:20;4.45;;;2.67;;
8458;SDS011;4266;48.816;9.154;2023-08-06T12:31:46;2.30;;;2.20;;
8458;SDS011;4266;48.816;9.154;2023-08-06T12:34:12;2.30;;;2.20;;
8458;SDS011;4266;48.816;9.154;2023-08-06T12:36:38;3.10;;;2.62;;
8458;SDS011;4266;48.816;9.154;2023-08-06T12:39:04;2.53;;;2.33;;
8458;SDS011;4266;48.816;9.154;2023-08-06T12:41:30;2.67;;;2.37;;
8458;SDS011;4266;48.816;9.154;2023-08-06T12:43:56;2.22;;;2.12;;
8458;SDS011;4266;48.816;9.154;2023-08-06T12:46:21;2.35;;;1.90;;
8458;SDS011;4266;48.816;9.154;2023-08-06T12:48:47;2.22;;;2.08;;
8458;SDS011;4266;48.816;9.154;2023-08-06T12:51:13;3.45;;;2.22;;
8458;SDS011;4266;48.816;9.154;2023-08-06T12:53:38;2.08;;;1.98;;
8458;SDS011;4266;48.816;9.154;2023-08-06T12:56:04;1.60;;;1.50;;
8458;SDS011;4266;48.816;9.154;2023-08-06T12:58:30;2.03;;;1.58;;
8458;SDS011;4266;48.816;9.154;2023-08-06T13:00:55;1.98;;;1.87;;
8458;SDS011;4266;48.816;9.154;2023-08-06T13:03:21;1.70;;;1.60;;
8458;SDS011;4266;48.816;9.154;2023-08-06T13:05:48;1.87;;;1.77;;
8458;SDS011;4266;48.816;9.154;2023-08-06T13:08:13;1.60;;;1.50;;
8458;SDS011;4266;48.816;9.154;2023-08-06T13:10:39;1.50;;;1.50;;
8458;SDS011;4266;48.816;9.154;2023-08-06T13:13:05;1.70;;;1.60;;
8458;SDS011;4266;48.816;9.154;2023-08-06T13:15:30;2.00;;;1.90;;
8458;SDS011;4266;48.816;9.154;2023-08-06T13:17:56;1.73;;;1.62;;
8458;SDS011;4266;48.816;9.154;2023-08-06T13:20:22;2.30;;;2.10;;
8458;SDS011;4266;48.816;9.154;2023-08-06T13:22:47;2.20;;;1.90;;
8458;SDS011;4266;48.816;9.154;2023-08-06T13:25:13;1.80;;;1.75;;
8458;SDS011;4266;48.816;9.154;2023-08-06T13:27:39;1.80;;;1.70;;
8458;SDS011;4266;48.816;9.154;2023-08-06T13:30:05;2.12;;;1.90;;
8458;SDS011;4266;48.816;9.154;2023-08-06T13:32:32;2.28;;;1.73;;
8458;SDS011;4266;48.816;9.154;2023-08-06T13:34:58;1.83;;;1.70;;
8458;SDS011;4266;48.816;9.154;2023-08-06T13:37:24;1.60;;;1.50;;
8458;SDS011;4266;48.816;9.154;2023-08-06T13:39:49;1.75;;;1.65;;
8458;SDS011;4266;48.816;9.154;2023-08-06T13:42:15;1.55;;;1.45;;
8458;SDS011;4266;48.816;9.154;2023-08-06T13:44:41;1.87;;;1.77;;
8458;SDS011;4266;48.816;9.154;2023-08-06T13:47:07;3.62;;;1.50;;
8458;SDS011;4266;48.816;9.154;2023-08-06T13:49:33;1.70;;;1.60;;
8458;SDS011;4266;48.816;9.154;2023-08-06T13:51:59;2.72;;;1.65;;
8458;SDS011;4266;48.816;9.154;2023-08-06T13:54:24;8.57;;;1.50;;
8458;SDS011;4266;48.816;9.154;2023-08-06T13:56:51;1.50;;;1.40;;
8458;SDS011;4266;48.816;9.154;2023-08-06T13:59:17;1.70;;;1.67;;
8458;SDS011;4266;48.816;9.154;2023-08-06T14:01:43;1.75;;;1.42;;
8458;SDS011;4266;48.816;9.154;2023-08-06T14:04:09;2.15;;;1.58;;
8458;SDS011;4266;48.816;9.154;2023-08-06T14:06:35;2.45;;;1.37;;
8458;SDS011;4266;48.816;9.154;2023-08-06T14:09:01;1.98;;;1.70;;
8458;SDS011;4266;48.816;9.154;2023-08-06T14:11:26;2.47;;;1.58;;
8458;SDS011;4266;48.816;9.154;2023-08-06T14:13:53;1.95;;;1.85;;
8458;SDS011;4266;48.816;9.154;2023-08-06T14:16:19;2.10;;;2.00;;
8458;SDS011;4266;48.816;9.154;2023-08-06T14:18:44;2.28;;;1.87;;
8458;SDS011;4266;48.816;9.154;2023-08-06T14:21:10;2.22;;;1.60;;
8458;SDS011;4266;48.816;9.154;2023-08-06T14:23:36;1.73;;;1.62;;
8458;SDS011;4266;48.816;9.154;2023-08-06T14:26:02;1.60;;;1.50;;
8458;SDS011;4266;48.816;9.154;2023-08-06T14:28:28;1.98;;;1.87;;
8458;SDS011;4266;48.816;9.154;2023-08-06T14:30:53;1.58;;;1.48;;
8458;SDS011;4266;48.816;9.154;2023-08-06T14:33:19;2.00;;;1.90;;
8458;SDS011;4266;48.816;9.154;2023-08-06T14:35:45;3.40;;;2.20;;
8458;SDS011;4266;48.816;9.154;2023-08-06T14:38:11;3.10;;;1.80;;
8458;SDS011;4266;48.816;9.154;2023-08-06T14:40:38;1.75;;;1.65;;
8458;SDS011;4266;48.816;9.154;2023-08-06T14:43:05;2.00;;;1.90;;
8458;SDS011;4266;48.816;9.154;2023-08-06T14:45:29;1.62;;;1.52;;
8458;SDS011;4266;48.816;9.154;2023-08-06T14:47:55;1.42;;;1.42;;
8458;SDS011;4266;48.816;9.154;2023-08-06T14:50:20;1.55;;;1.45;;
8458;SDS011;4266;48.816;9.154;2023-08-06T14:52:47;1.65;;;1.55;;
8458;SDS011;4266;48.816;9.154;2023-08-06T14:55:17;1.77;;;1.62;;
8458;SDS011;4266;48.816;9.154;2023-08-06T14:57:42;1.77;;;1.67;;
8458;SDS011;4266;48.816;9.154;2023-08-06T15:00:09;1.80;;;1.70;;
8458;SDS011;4266;48.816;9.154;2023-08-06T15:02:36;2.20;;;2.10;;
8458;SDS011;4266;48.816;9.154;2023-08-06T15:05:02;2.22;;;2.03;;
8458;SDS011;4266;48.816;9.154;2023-08-06T15:07:28;2.65;;;1.67;;
8458;SDS011;4266;48.816;9.154;2023-08-06T15:09:54;1.80;;;1.70;;
8458;SDS011;4266;48.816;9.154;2023-08-06T15:12:20;3.05;;;1.62;;
8458;SDS011;4266;48.816;9.154;2023-08-06T15:14:46;2.35;;;1.95;;